createdAt,value
2023-03-02T00:00:45.553Z,44.49
2023-03-02T00:03:13.669Z,44.54
2023-03-02T00:05:41.212Z,45.07
2023-03-02T00:08:09.119Z,45.05
2023-03-02T00:10:36.517Z,45.69
2023-03-02T00:13:03.202Z,46.35
2023-03-02T00:15:29.776Z,46.27
2023-03-02T00:17:56.324Z,46.07
2023-03-02T00:20:22.814Z,46.27
2023-03-02T00:22:49.380Z,46.51
2023-03-02T00:25:16.912Z,46.29
2023-03-02T00:27:43.588Z,46.68
2023-03-02T00:30:11.152Z,46.69
2023-03-02T00:32:37.854Z,46.48
2023-03-02T00:35:04.762Z,46.00
2023-03-02T00:37:31.475Z,46.37
2023-03-02T00:39:58.390Z,46.28
2023-03-02T00:42:25.029Z,47.38
2023-03-02T00:44:52.340Z,47.21
2023-03-02T00:47:19.084Z,47.27
2023-03-02T00:49:49.072Z,47.99
2023-03-02T00:52:16.301Z,47.47
2023-03-02T00:54:43.301Z,47.96
2023-03-02T00:57:09.904Z,47.06
2023-03-02T00:59:39.693Z,47.11
2023-03-02T01:02:25.756Z,47.88
2023-03-02T01:04:55.996Z,46.75
2023-03-02T01:07:24.957Z,47.66
2023-03-02T01:09:51.837Z,46.98
2023-03-02T01:12:18.337Z,47.01
2023-03-02T01:14:47.189Z,46.51
2023-03-02T01:17:14.413Z,46.77
2023-03-02T01:19:41.410Z,46.54
2023-03-02T01:22:08.392Z,46.83
2023-03-02T01:24:35.138Z,47.12
2023-03-02T01:27:01.724Z,47.06
2023-03-02T01:29:28.304Z,46.90
2023-03-02T01:31:54.950Z,47.15
2023-03-02T01:34:21.725Z,47.64
2023-03-02T01:36:48.305Z,47.46
2023-03-02T01:39:17.957Z,47.19
2023-03-02T01:41:45.240Z,47.59
2023-03-02T01:44:30.919Z,47.49
2023-03-02T01:46:57.570Z,47.91
2023-03-02T01:49:24.603Z,48.04
2023-03-02T01:51:56.231Z,48.15
2023-03-02T01:54:23.489Z,48.17
2023-03-02T01:56:58.361Z,48.15
2023-03-02T01:59:27.504Z,48.72
2023-03-02T02:01:56.679Z,48.75
2023-03-02T02:04:24.148Z,48.23
2023-03-02T02:06:54.583Z,48.12
2023-03-02T02:09:26.796Z,47.77
2023-03-02T02:11:54.220Z,48.44
2023-03-02T02:14:21.492Z,47.73
2023-03-02T02:16:48.525Z,47.96
2023-03-02T02:19:33.335Z,48.42
2023-03-02T02:21:59.878Z,47.89
2023-03-02T02:24:31.643Z,48.23
2023-03-02T02:26:58.325Z,48.29
2023-03-02T02:29:26.948Z,48.62
2023-03-02T02:31:57.193Z,48.83
2023-03-02T02:34:35.743Z,49.24
2023-03-02T02:37:07.382Z,49.65
2023-03-02T02:39:36.044Z,48.99
2023-03-02T02:42:04.782Z,49.68
2023-03-02T02:44:32.021Z,49.85
2023-03-02T02:46:59.766Z,49.71
2023-03-02T02:49:26.328Z,49.82
2023-03-02T02:51:52.935Z,49.46
2023-03-02T02:54:21.099Z,49.25
2023-03-02T02:56:49.101Z,49.21
2023-03-02T02:59:28.952Z,49.37
2023-03-02T03:01:59.439Z,49.59
2023-03-02T03:04:28.408Z,50.34
2023-03-02T03:06:59.673Z,49.33
2023-03-02T03:09:26.966Z,49.01
2023-03-02T03:11:55.624Z,49.31
2023-03-02T03:14:25.591Z,48.75
2023-03-02T03:16:53.748Z,49.79
2023-03-02T03:19:25.055Z,48.90
2023-03-02T03:21:54.244Z,49.35
2023-03-02T03:24:22.317Z,48.99
2023-03-02T03:26:49.262Z,49.24
2023-03-02T03:29:17.624Z,48.83
2023-03-02T03:31:45.096Z,49.56
2023-03-02T03:34:12.736Z,49.14
2023-03-02T03:36:39.469Z,49.14
2023-03-02T03:39:06.470Z,49.93
2023-03-02T03:41:33.472Z,50.01
2023-03-02T03:44:00.369Z,50.49
2023-03-02T03:46:30.534Z,50.43
2023-03-02T03:48:57.464Z,49.91
2023-03-02T03:51:24.475Z,49.92
2023-03-02T03:54:00.014Z,49.67
2023-03-02T03:56:36.108Z,49.96
2023-03-02T03:59:07.546Z,50.09
2023-03-02T04:01:41.185Z,49.19
2023-03-02T04:04:10.149Z,49.61
2023-03-02T04:06:36.922Z,48.97
2023-03-02T04:09:04.817Z,49.68
2023-03-02T04:11:34.464Z,49.19
2023-03-02T04:14:01.651Z,49.77
2023-03-02T04:16:28.945Z,49.27
2023-03-02T04:18:56.461Z,49.20
2023-03-02T04:21:23.578Z,49.27
2023-03-02T04:23:51.963Z,49.30
2023-03-02T04:26:18.794Z,49.94
2023-03-02T04:28:45.588Z,49.73
2023-03-02T04:31:12.388Z,49.22
2023-03-02T04:33:39.620Z,49.96
2023-03-02T04:36:06.916Z,49.44
2023-03-02T04:38:33.633Z,49.93
2023-03-02T04:41:00.337Z,50.34
2023-03-02T04:43:27.490Z,50.39
2023-03-02T04:45:54.600Z,49.62
2023-03-02T04:48:22.073Z,50.07
2023-03-02T04:50:49.628Z,50.00
2023-03-02T04:53:16.802Z,50.10
2023-03-02T04:55:43.680Z,49.96
2023-03-02T04:58:10.194Z,50.30
2023-03-02T05:00:36.848Z,50.56
2023-03-02T05:03:07.119Z,50.13
2023-03-02T05:05:33.933Z,50.60
2023-03-02T05:08:00.571Z,50.39
2023-03-02T05:10:27.798Z,50.22
2023-03-02T05:13:05.090Z,49.97
2023-03-02T05:15:33.527Z,49.99
2023-03-02T05:18:00.508Z,49.59
2023-03-02T05:20:31.674Z,49.81
2023-03-02T05:22:59.741Z,50.09
2023-03-02T05:25:26.869Z,49.77
2023-03-02T05:27:53.469Z,49.60
2023-03-02T05:30:20.335Z,49.58
2023-03-02T05:32:47.044Z,49.50
2023-03-02T05:35:14.251Z,50.20
2023-03-02T05:37:42.675Z,49.49
2023-03-02T05:40:09.924Z,49.74
2023-03-02T05:42:36.714Z,49.51
2023-03-02T05:45:07.825Z,49.63
2023-03-02T05:47:34.339Z,50.07
2023-03-02T05:50:01.358Z,50.12
2023-03-02T05:52:28.149Z,49.98
2023-03-02T05:54:55.080Z,49.52
2023-03-02T05:57:22.168Z,50.39
2023-03-02T05:59:50.993Z,50.56
2023-03-02T06:02:17.864Z,50.10
2023-03-02T06:04:44.720Z,50.98
2023-03-02T06:07:12.176Z,50.98
2023-03-02T06:09:40.683Z,51.13
2023-03-02T06:12:08.047Z,51.30
2023-03-02T06:14:35.620Z,50.52
2023-03-02T06:17:02.488Z,50.77
2023-03-02T06:19:29.362Z,51.59
2023-03-02T06:21:56.186Z,51.24
2023-03-02T06:24:22.952Z,51.52
2023-03-02T06:26:49.704Z,50.98
2023-03-02T06:29:16.829Z,51.53
2023-03-02T06:31:43.585Z,50.73
2023-03-02T06:34:10.653Z,51.32
2023-03-02T06:36:38.815Z,50.81
2023-03-02T06:39:06.948Z,50.86
2023-03-02T06:41:33.833Z,50.77
2023-03-02T06:44:02.286Z,50.67
2023-03-02T06:46:29.079Z,50.28
2023-03-02T06:48:56.150Z,50.47
2023-03-02T06:51:24.129Z,50.86
2023-03-02T06:53:53.482Z,50.21
2023-03-02T06:56:19.993Z,50.96
2023-03-02T06:58:46.559Z,50.80
2023-03-02T07:01:13.387Z,50.83
2023-03-02T07:03:40.283Z,50.31
2023-03-02T07:06:07.181Z,50.35
2023-03-02T07:08:34.234Z,50.31
2023-03-02T07:11:04.622Z,50.43
2023-03-02T07:13:31.429Z,50.80
2023-03-02T07:15:57.965Z,50.32
2023-03-02T07:18:24.441Z,50.63
2023-03-02T07:20:50.974Z,49.90
2023-03-02T07:23:17.561Z,49.35
2023-03-02T07:25:44.167Z,49.05
2023-03-02T07:28:10.806Z,49.90
2023-03-02T07:30:37.357Z,49.90
2023-03-02T07:33:04.023Z,49.53
2023-03-02T07:35:30.669Z,50.00
2023-03-02T07:37:57.377Z,49.52
2023-03-02T07:40:24.058Z,49.84
2023-03-02T07:42:50.558Z,49.89
2023-03-02T07:45:20.238Z,49.02
2023-03-02T07:47:46.820Z,49.42
2023-03-02T07:50:13.438Z,49.64
2023-03-02T07:52:40.071Z,49.07
2023-03-02T07:55:06.807Z,48.69
2023-03-02T07:57:33.347Z,48.57
2023-03-02T07:59:59.846Z,48.31
2023-03-02T08:02:26.583Z,47.37
2023-03-02T08:04:53.426Z,47.54
2023-03-02T08:07:20.160Z,47.99
2023-03-02T08:09:46.735Z,47.99
2023-03-02T08:12:13.317Z,48.10
2023-03-02T08:14:40.331Z,47.32
2023-03-02T08:17:07.074Z,47.47
2023-03-02T08:19:34.111Z,47.22
2023-03-02T08:22:01.298Z,47.08
2023-03-02T08:24:27.994Z,46.29
2023-03-02T08:26:54.883Z,46.65
2023-03-02T08:29:21.407Z,45.69
2023-03-02T08:31:48.579Z,46.33
2023-03-02T08:34:15.325Z,46.60
2023-03-02T08:36:43.521Z,45.89
2023-03-02T08:39:10.165Z,45.64
2023-03-02T08:41:36.796Z,45.52
2023-03-02T08:44:03.355Z,46.03
2023-03-02T08:46:30.837Z,45.58
2023-03-02T08:48:57.481Z,45.98
2023-03-02T08:51:25.022Z,45.53
2023-03-02T08:53:52.611Z,45.10
2023-03-02T08:56:21.098Z,45.69
2023-03-02T08:58:48.461Z,45.43
2023-03-02T09:01:15.789Z,44.41
2023-03-02T09:03:42.400Z,45.35
2023-03-02T09:06:09.645Z,45.24
2023-03-02T09:08:36.283Z,44.38
2023-03-02T09:11:02.914Z,44.81
2023-03-02T09:13:29.564Z,44.38
2023-03-02T09:15:57.009Z,44.65
2023-03-02T09:18:23.617Z,44.11
2023-03-02T09:20:52.155Z,43.36
2023-03-02T09:23:19.411Z,42.98
2023-03-02T09:25:47.697Z,42.59
2023-03-02T09:28:14.765Z,43.29
2023-03-02T09:30:41.766Z,42.44
2023-03-02T09:33:08.836Z,42.90
2023-03-02T09:35:35.578Z,41.96
2023-03-02T09:38:02.382Z,41.32
2023-03-02T09:40:30.623Z,42.15
2023-03-02T09:43:19.489Z,41.28
2023-03-02T09:45:49.685Z,41.17
2023-03-02T09:48:22.445Z,41.62
2023-03-02T09:50:55.692Z,41.14
2023-03-02T09:53:47.584Z,41.52
2023-03-02T09:56:16.527Z,41.36
2023-03-02T09:58:47.696Z,40.55
2023-03-02T10:01:17.945Z,40.95
2023-03-02T10:03:54.698Z,40.90
2023-03-02T10:06:21.468Z,40.85
2023-03-02T10:08:50.543Z,40.32
2023-03-02T10:11:23.536Z,39.78
2023-03-02T10:14:17.517Z,39.34
2023-03-02T10:16:48.299Z,38.78
2023-03-02T10:19:25.446Z,38.05
2023-03-02T10:21:58.228Z,35.05
2023-03-02T10:24:33.653Z,29.59
2023-03-02T10:27:24.557Z,24.72
2023-03-02T10:29:57.070Z,19.87
2023-03-02T10:32:25.522Z,18.21
2023-03-02T10:34:53.074Z,17.22
2023-03-02T10:37:29.225Z,15.95
2023-03-02T10:39:55.998Z,14.65
2023-03-02T10:42:27.421Z,14.41
2023-03-02T10:44:56.005Z,13.22
2023-03-02T10:47:27.164Z,13.03
2023-03-02T10:49:55.471Z,12.42
2023-03-02T10:52:23.542Z,12.42
2023-03-02T10:54:50.632Z,12.55
2023-03-02T10:57:28.493Z,12.83
2023-03-02T11:00:00.341Z,14.33
2023-03-02T11:02:28.323Z,14.47
2023-03-02T11:04:57.985Z,14.62
2023-03-02T11:07:29.072Z,13.52
2023-03-02T11:10:00.436Z,13.59
2023-03-02T11:12:27.664Z,13.07
2023-03-02T11:15:09.550Z,12.60
2023-03-02T11:17:37.812Z,13.58
2023-03-02T11:20:09.848Z,13.05
2023-03-02T11:22:39.726Z,13.04
2023-03-02T11:25:08.506Z,12.24
2023-03-02T11:27:38.571Z,12.64
2023-03-02T11:30:11.450Z,12.31
2023-03-02T11:32:58.057Z,11.31
2023-03-02T11:35:31.292Z,10.54
2023-03-02T11:38:04.131Z,10.21
2023-03-02T11:40:30.753Z,10.42
2023-03-02T11:42:59.342Z,9.71
2023-03-02T11:45:46.339Z,9.67
2023-03-02T11:48:25.534Z,10.02
2023-03-02T11:50:52.122Z,10.84
2023-03-02T11:53:19.539Z,11.65
2023-03-02T11:55:48.818Z,11.69
2023-03-02T11:58:24.360Z,10.78
2023-03-02T12:00:52.573Z,10.84
2023-03-02T12:03:22.047Z,9.98
2023-03-02T12:05:51.633Z,10.37
2023-03-02T12:08:21.227Z,10.27
2023-03-02T12:11:07.510Z,10.03
2023-03-02T12:13:36.708Z,10.60
2023-03-02T12:16:04.753Z,11.47
2023-03-02T12:18:41.440Z,11.86
2023-03-02T12:21:07.997Z,11.71
2023-03-02T12:23:53.952Z,10.84
2023-03-02T12:26:26.409Z,10.49
2023-03-02T12:29:05.795Z,10.65
2023-03-02T12:31:47.152Z,11.65
2023-03-02T12:34:35.150Z,12.58
2023-03-02T12:37:06.219Z,12.67
2023-03-02T12:39:45.232Z,12.03
2023-03-02T12:42:14.827Z,11.40
2023-03-02T12:44:56.792Z,11.05
2023-03-02T12:47:29.662Z,12.34
2023-03-02T12:50:08.298Z,14.28
2023-03-02T12:52:37.994Z,17.47
2023-03-02T12:55:06.267Z,19.27
2023-03-02T12:57:33.562Z,20.81
2023-03-02T13:00:01.816Z,22.52
2023-03-02T13:02:33.650Z,23.15
2023-03-02T13:05:07.815Z,23.80
2023-03-02T13:07:38.126Z,24.15
2023-03-02T13:10:08.626Z,24.73
2023-03-02T13:12:36.600Z,25.20
2023-03-02T13:15:03.964Z,26.00
2023-03-02T13:17:32.652Z,27.63
2023-03-02T13:20:00.674Z,27.00
2023-03-02T13:22:28.267Z,28.04
2023-03-02T13:24:55.053Z,28.79
2023-03-02T13:27:23.753Z,28.68
2023-03-02T13:29:52.867Z,29.19
2023-03-02T13:32:26.018Z,29.18
2023-03-02T13:34:59.598Z,28.94
2023-03-02T13:37:32.378Z,28.54
2023-03-02T13:40:00.493Z,28.81
2023-03-02T13:42:40.662Z,29.26
2023-03-02T13:45:26.213Z,29.43
2023-03-02T13:47:53.660Z,29.23
2023-03-02T13:50:21.730Z,28.82
2023-03-02T13:52:48.866Z,28.08
2023-03-02T13:55:16.840Z,28.31
2023-03-02T13:57:45.899Z,28.43
2023-03-02T14:00:20.412Z,29.22
2023-03-02T14:02:50.516Z,29.31
2023-03-02T14:05:26.719Z,29.37
2023-03-02T14:07:53.376Z,28.94
2023-03-02T14:10:20.572Z,29.43
2023-03-02T14:12:53.509Z,29.76
2023-03-02T14:15:20.202Z,29.81
2023-03-02T14:17:49.162Z,29.49
2023-03-02T14:20:19.263Z,28.81
2023-03-02T14:22:46.291Z,29.23
2023-03-02T14:25:13.040Z,29.10
2023-03-02T14:27:40.093Z,29.66
2023-03-02T14:30:15.185Z,29.38
2023-03-02T14:32:41.772Z,29.57
2023-03-02T14:35:11.463Z,30.08
2023-03-02T14:37:40.774Z,29.98
2023-03-02T14:40:27.502Z,29.62
2023-03-02T14:42:54.404Z,29.51
2023-03-02T14:45:21.391Z,29.78
2023-03-02T14:47:48.919Z,30.16
2023-03-02T14:50:16.991Z,29.72
2023-03-02T14:53:02.970Z,30.10
2023-03-02T14:55:34.100Z,30.59
2023-03-02T14:58:10.711Z,29.94
2023-03-02T15:00:38.942Z,30.34
2023-03-02T15:03:05.615Z,30.30
2023-03-02T15:05:32.494Z,29.89
2023-03-02T15:07:59.634Z,29.80
2023-03-02T15:10:26.944Z,30.65
2023-03-02T15:12:53.525Z,30.45
2023-03-02T15:15:22.950Z,30.32
2023-03-02T15:17:49.783Z,30.55
2023-03-02T15:20:16.944Z,30.67
2023-03-02T15:22:43.867Z,30.87
2023-03-02T15:25:10.955Z,31.09
2023-03-02T15:27:37.904Z,31.80
2023-03-02T15:30:04.909Z,31.20
2023-03-02T15:32:31.518Z,31.41
2023-03-02T15:34:58.242Z,31.63
2023-03-02T15:37:26.566Z,31.72
2023-03-02T15:39:56.878Z,31.92
2023-03-02T15:42:23.953Z,31.86
2023-03-02T15:44:50.640Z,32.41
2023-03-02T15:47:17.528Z,32.06
2023-03-02T15:49:44.075Z,32.35
2023-03-02T15:52:14.562Z,32.27
2023-03-02T15:54:41.552Z,32.67
2023-03-02T15:57:10.427Z,32.49
2023-03-02T15:59:37.502Z,32.21
2023-03-02T16:02:05.758Z,32.99
2023-03-02T16:04:33.647Z,32.54
2023-03-02T16:07:03.413Z,33.12
2023-03-02T16:09:31.794Z,33.02
2023-03-02T16:11:59.116Z,33.13
2023-03-02T16:14:26.097Z,33.07
2023-03-02T16:16:53.338Z,32.84
2023-03-02T16:19:20.163Z,32.90
2023-03-02T16:21:48.251Z,33.36
2023-03-02T16:24:16.858Z,33.79
2023-03-02T16:26:43.568Z,33.44
2023-03-02T16:29:10.994Z,33.89
2023-03-02T16:31:39.377Z,33.67
2023-03-02T16:34:07.707Z,34.40
2023-03-02T16:36:35.272Z,34.34
2023-03-02T16:39:02.149Z,33.75
2023-03-02T16:41:29.149Z,34.00
2023-03-02T16:43:58.687Z,33.44
2023-03-02T16:46:26.360Z,33.35
2023-03-02T16:48:53.775Z,33.29
2023-03-02T16:51:21.373Z,33.13
2023-03-02T16:53:48.353Z,33.05
2023-03-02T16:56:17.177Z,33.48
2023-03-02T16:58:44.104Z,33.88
2023-03-02T17:01:12.613Z,34.11
2023-03-02T17:03:39.187Z,33.68
2023-03-02T17:06:06.456Z,34.07
2023-03-02T17:08:33.327Z,34.10
2023-03-02T17:10:59.904Z,34.36
2023-03-02T17:13:26.930Z,34.45
2023-03-02T17:15:53.699Z,34.01
2023-03-02T17:18:20.521Z,34.07
2023-03-02T17:20:50.296Z,34.42
2023-03-02T17:23:16.867Z,34.19
2023-03-02T17:25:43.450Z,34.37
2023-03-02T17:28:12.562Z,34.79
2023-03-02T17:30:39.663Z,35.06
2023-03-02T17:33:06.594Z,34.79
2023-03-02T17:35:33.303Z,34.97
2023-03-02T17:37:59.978Z,35.56
2023-03-02T17:40:26.649Z,34.85
2023-03-02T17:42:56.130Z,35.02
2023-03-02T17:45:26.001Z,35.25
2023-03-02T17:47:53.521Z,35.08
2023-03-02T17:50:20.604Z,35.02
2023-03-02T17:52:47.358Z,35.25
2023-03-02T17:55:14.057Z,34.91
2023-03-02T17:57:40.592Z,35.07
2023-03-02T18:00:08.746Z,35.38
2023-03-02T18:02:37.602Z,35.79
2023-03-02T18:05:04.362Z,35.14
2023-03-02T18:07:30.998Z,35.32
2023-03-02T18:09:57.544Z,35.62
2023-03-02T18:12:24.146Z,35.43
2023-03-02T18:14:50.674Z,35.86
2023-03-02T18:17:20.676Z,35.50
2023-03-02T18:19:48.228Z,35.74
2023-03-02T18:22:15.016Z,36.11
2023-03-02T18:24:41.617Z,35.92
2023-03-02T18:27:08.331Z,36.21
2023-03-02T18:29:34.841Z,36.19
2023-03-02T18:32:01.474Z,36.58
2023-03-02T18:34:28.100Z,36.35
2023-03-02T18:36:58.067Z,36.34
2023-03-02T18:39:25.820Z,36.89
2023-03-02T18:41:52.450Z,36.29
2023-03-02T18:44:19.941Z,36.27
2023-03-02T18:46:46.760Z,36.27
2023-03-02T18:49:13.408Z,35.94
2023-03-02T18:51:40.008Z,35.94
2023-03-02T18:54:07.590Z,36.02
2023-03-02T18:56:34.182Z,36.48
2023-03-02T18:59:00.899Z,36.70
2023-03-02T19:01:30.138Z,36.86
2023-03-02T19:03:57.612Z,36.22
2023-03-02T19:06:24.284Z,36.38
2023-03-02T19:08:50.913Z,36.95
2023-03-02T19:11:17.619Z,36.64
2023-03-02T19:13:44.159Z,37.06
2023-03-02T19:16:11.136Z,36.74
2023-03-02T19:18:38.006Z,36.73
2023-03-02T19:21:05.410Z,37.69
2023-03-02T19:23:32.481Z,36.93
2023-03-02T19:25:59.030Z,37.83
2023-03-02T19:28:26.279Z,37.36
2023-03-02T19:30:53.171Z,36.99
2023-03-02T19:33:19.772Z,37.97
2023-03-02T19:35:46.341Z,37.16
2023-03-02T19:38:13.006Z,38.10
2023-03-02T19:40:39.838Z,37.48
2023-03-02T19:43:07.640Z,37.52
2023-03-02T19:45:35.759Z,37.45
2023-03-02T19:48:03.388Z,37.74
2023-03-02T19:50:30.312Z,37.98
2023-03-02T19:52:57.863Z,37.92
2023-03-02T19:55:25.558Z,38.05
2023-03-02T19:57:59.504Z,37.86
2023-03-02T20:00:27.279Z,38.26
2023-03-02T20:02:54.104Z,37.55
2023-03-02T20:05:20.968Z,37.61
2023-03-02T20:07:47.787Z,38.28
2023-03-02T20:10:26.166Z,37.81
2023-03-02T20:12:53.034Z,38.10
2023-03-02T20:15:19.752Z,38.29
2023-03-02T20:17:46.578Z,37.58
2023-03-02T20:20:13.759Z,37.56
2023-03-02T20:22:40.377Z,38.45
2023-03-02T20:25:10.169Z,37.25
2023-03-02T20:27:36.773Z,38.27
2023-03-02T20:30:05.804Z,37.52
2023-03-02T20:32:32.407Z,37.82
2023-03-02T20:34:58.938Z,38.05
2023-03-02T20:37:26.480Z,38.89
2023-03-02T20:39:53.795Z,38.46
2023-03-02T20:42:20.682Z,39.07
2023-03-02T20:44:47.364Z,39.25
2023-03-02T20:47:15.074Z,38.63
2023-03-02T20:49:41.858Z,38.29
2023-03-02T20:52:09.063Z,38.73
2023-03-02T20:54:38.283Z,38.50
2023-03-02T20:57:05.822Z,39.08
2023-03-02T20:59:32.719Z,38.71
2023-03-02T21:01:59.406Z,39.59
2023-03-02T21:04:26.085Z,39.28
2023-03-02T21:06:52.815Z,38.78
2023-03-02T21:09:19.735Z,39.51
2023-03-02T21:11:46.427Z,39.24
2023-03-02T21:14:16.473Z,39.07
2023-03-02T21:16:43.866Z,39.27
2023-03-02T21:19:13.489Z,39.35
2023-03-02T21:21:42.200Z,39.58
2023-03-02T21:24:10.842Z,39.36
2023-03-02T21:26:37.531Z,39.94
2023-03-02T21:29:05.487Z,40.05
2023-03-02T21:31:32.089Z,39.45
2023-03-02T21:34:00.091Z,39.26
2023-03-02T21:36:27.392Z,40.09
2023-03-02T21:38:54.116Z,39.54
2023-03-02T21:41:20.994Z,40.13
2023-03-02T21:43:48.156Z,40.54
2023-03-02T21:46:15.944Z,41.61
2023-03-02T21:48:42.983Z,41.21
2023-03-02T21:51:11.106Z,41.70
2023-03-02T21:53:37.932Z,41.48
2023-03-02T21:56:04.626Z,41.43
2023-03-02T21:58:31.268Z,41.78
2023-03-02T22:00:57.885Z,41.52
2023-03-02T22:03:24.455Z,41.19
2023-03-02T22:05:51.439Z,41.59
2023-03-02T22:08:18.943Z,41.66
2023-03-02T22:10:46.472Z,41.56
2023-03-02T22:13:19.624Z,41.74
2023-03-02T22:15:46.569Z,41.66
2023-03-02T22:18:16.755Z,41.78
2023-03-02T22:20:44.568Z,42.11
2023-03-02T22:23:12.469Z,42.20
2023-03-02T22:25:39.574Z,43.37
2023-03-02T22:28:13.431Z,43.37
2023-03-02T22:30:39.965Z,42.67
2023-03-02T22:33:20.137Z,43.24
2023-03-02T22:35:47.708Z,43.37
2023-03-02T22:38:20.330Z,43.57
2023-03-02T22:40:47.088Z,44.25
2023-03-02T22:43:25.997Z,44.25
2023-03-02T22:45:53.160Z,44.89
2023-03-02T22:48:21.143Z,45.72
2023-03-02T22:50:48.671Z,45.65
2023-03-02T22:53:29.216Z,46.07
2023-03-02T22:56:03.014Z,47.10
2023-03-02T22:58:46.519Z,46.92
2023-03-02T23:01:22.145Z,47.45
2023-03-02T23:03:53.304Z,47.93
2023-03-02T23:06:25.244Z,47.80
2023-03-02T23:08:52.785Z,47.34
2023-03-02T23:11:21.060Z,46.84
2023-03-02T23:13:48.312Z,47.89
2023-03-02T23:16:18.211Z,47.75
2023-03-02T23:18:44.833Z,47.08
2023-03-02T23:21:19.690Z,47.24
2023-03-02T23:23:46.973Z,47.49
2023-03-02T23:26:13.520Z,47.47
2023-03-02T23:28:40.172Z,47.40
2023-03-02T23:31:06.774Z,48.03
2023-03-02T23:33:33.509Z,47.05
2023-03-02T23:36:00.837Z,47.81
2023-03-02T23:38:32.705Z,47.66
2023-03-02T23:40:59.336Z,47.09
2023-03-02T23:43:26.300Z,47.04
2023-03-02T23:45:52.965Z,46.94
2023-03-02T23:48:19.517Z,47.70
2023-03-02T23:50:46.504Z,46.95
2023-03-02T23:53:13.940Z,47.57
2023-03-02T23:55:43.710Z,47.80
2023-03-02T23:58:10.335Z,47.60
